createdAt,value
2022-07-25T00:02:04.670Z,56.66
2022-07-25T00:04:34.303Z,56.77
2022-07-25T00:07:02.865Z,56.94
2022-07-25T00:09:29.607Z,57.60
2022-07-25T00:11:56.272Z,57.44
2022-07-25T00:14:22.967Z,57.00
2022-07-25T00:16:49.646Z,56.84
2022-07-25T00:19:16.389Z,56.49
2022-07-25T00:21:43.151Z,56.44
2022-07-25T00:24:10.488Z,57.27
2022-07-25T00:26:40.296Z,57.67
2022-07-25T00:29:07.669Z,57.85
2022-07-25T00:31:34.510Z,57.80
2022-07-25T00:34:01.540Z,58.56
2022-07-25T00:36:28.216Z,58.63
2022-07-25T00:38:54.881Z,59.48
2022-07-25T00:41:21.643Z,59.75
2022-07-25T00:43:48.421Z,59.88
2022-07-25T00:46:18.819Z,60.29
2022-07-25T00:48:47.698Z,60.35
2022-07-25T00:51:16.223Z,60.84
2022-07-25T00:53:43.643Z,61.13
2022-07-25T00:56:10.501Z,61.44
2022-07-25T00:58:37.611Z,61.85
2022-07-25T01:01:04.852Z,62.20
2022-07-25T01:03:31.701Z,62.43
2022-07-25T01:05:59.174Z,62.62
2022-07-25T01:08:25.943Z,62.58
2022-07-25T01:10:53.090Z,62.36
2022-07-25T01:13:19.757Z,61.97
2022-07-25T01:15:47.900Z,61.99
2022-07-25T01:18:14.702Z,62.53
2022-07-25T01:20:41.423Z,62.70
2022-07-25T01:23:08.105Z,62.91
2022-07-25T01:25:34.815Z,63.08
2022-07-25T01:28:01.530Z,63.28
2022-07-25T01:30:28.365Z,63.68
2022-07-25T01:32:55.187Z,64.07
2022-07-25T01:35:21.964Z,64.30
2022-07-25T01:37:48.896Z,64.23
2022-07-25T01:40:15.675Z,64.11
2022-07-25T01:42:43.606Z,64.41
2022-07-25T01:45:12.127Z,64.54
2022-07-25T01:47:39.490Z,64.64
2022-07-25T01:50:07.171Z,65.05
2022-07-25T01:52:33.835Z,65.76
2022-07-25T01:55:00.550Z,65.63
2022-07-25T01:57:31.049Z,65.95
2022-07-25T01:59:58.591Z,66.11
2022-07-25T02:02:25.475Z,66.33
2022-07-25T02:04:52.330Z,66.21
2022-07-25T02:07:19.124Z,66.62
2022-07-25T02:09:45.910Z,66.62
2022-07-25T02:12:12.668Z,66.50
2022-07-25T02:14:39.608Z,67.01
2022-07-25T02:17:06.427Z,67.75
2022-07-25T02:19:33.351Z,67.86
2022-07-25T02:22:00.689Z,68.09
2022-07-25T02:24:27.598Z,68.28
2022-07-25T02:26:54.401Z,68.46
2022-07-25T02:29:21.880Z,68.75
2022-07-25T02:31:49.311Z,68.81
2022-07-25T02:34:16.328Z,69.05
2022-07-25T02:36:43.367Z,69.13
2022-07-25T02:39:10.175Z,69.49
2022-07-25T02:41:36.974Z,70.18
2022-07-25T02:44:05.587Z,70.45
2022-07-25T02:46:33.314Z,70.40
2022-07-25T02:49:00.564Z,70.96
2022-07-25T02:51:27.578Z,70.66
2022-07-25T02:53:57.838Z,70.98
2022-07-25T02:56:26.073Z,71.31
2022-07-25T02:58:56.444Z,71.17
2022-07-25T03:01:23.231Z,71.68
2022-07-25T03:03:50.334Z,71.47
2022-07-25T03:06:17.402Z,71.15
2022-07-25T03:08:44.137Z,71.52
2022-07-25T03:11:12.249Z,71.82
2022-07-25T03:13:38.979Z,72.36
2022-07-25T03:16:06.902Z,72.42
2022-07-25T03:18:33.617Z,72.79
2022-07-25T03:21:00.418Z,72.63
2022-07-25T03:23:28.413Z,72.86
2022-07-25T03:25:55.918Z,72.81
2022-07-25T03:28:23.220Z,72.94
2022-07-25T03:30:50.045Z,72.99
2022-07-25T03:33:16.752Z,73.42
2022-07-25T03:35:45.367Z,73.42
2022-07-25T03:38:12.069Z,73.39
2022-07-25T03:40:38.804Z,73.28
2022-07-25T03:43:05.668Z,73.72
2022-07-25T03:45:32.472Z,73.29
2022-07-25T03:47:59.156Z,73.53
2022-07-25T03:50:25.939Z,73.31
2022-07-25T03:52:52.635Z,73.40
2022-07-25T03:55:19.391Z,73.39
2022-07-25T03:57:47.142Z,73.37
2022-07-25T04:00:14.142Z,73.49
2022-07-25T04:02:40.985Z,73.37
2022-07-25T04:05:08.781Z,73.55
2022-07-25T04:07:36.190Z,73.41
2022-07-25T04:10:04.836Z,73.56
2022-07-25T04:12:31.835Z,73.92
2022-07-25T04:14:58.611Z,73.74
2022-07-25T04:17:25.903Z,73.98
2022-07-25T04:19:52.901Z,74.00
2022-07-25T04:22:19.557Z,73.69
2022-07-25T04:24:46.419Z,74.15
2022-07-25T04:27:13.104Z,73.78
2022-07-25T04:29:39.783Z,74.01
2022-07-25T04:32:06.923Z,73.81
2022-07-25T04:34:33.674Z,73.41
2022-07-25T04:37:00.379Z,73.63
2022-07-25T04:39:27.055Z,73.38
2022-07-25T04:41:53.728Z,73.20
2022-07-25T04:44:20.413Z,73.43
2022-07-25T04:46:47.144Z,73.56
2022-07-25T04:49:14.032Z,73.79
2022-07-25T04:51:40.774Z,74.12
2022-07-25T04:54:07.915Z,73.96
2022-07-25T04:56:35.053Z,73.79
2022-07-25T04:59:06.738Z,73.56
2022-07-25T05:01:34.802Z,73.38
2022-07-25T05:04:01.961Z,72.82
2022-07-25T05:06:28.736Z,72.97
2022-07-25T05:08:55.666Z,72.67
2022-07-25T05:11:22.410Z,72.17
2022-07-25T05:13:49.140Z,71.65
2022-07-25T05:16:16.147Z,71.12
2022-07-25T05:18:42.963Z,70.45
2022-07-25T05:21:11.554Z,69.95
2022-07-25T05:23:38.322Z,69.18
2022-07-25T05:26:05.217Z,68.35
2022-07-25T05:28:31.861Z,68.00
2022-07-25T05:30:58.605Z,68.31
2022-07-25T05:33:26.614Z,67.95
2022-07-25T05:35:53.459Z,67.80
2022-07-25T05:38:20.510Z,67.47
2022-07-25T05:40:48.086Z,67.67
2022-07-25T05:43:14.806Z,67.41
2022-07-25T05:45:41.529Z,66.89
2022-07-25T05:48:08.193Z,67.16
2022-07-25T05:50:37.122Z,66.95
2022-07-25T05:53:03.795Z,66.65
2022-07-25T05:55:30.534Z,65.91
2022-07-25T05:57:57.294Z,65.32
2022-07-25T06:00:24.309Z,64.64
2022-07-25T06:02:51.453Z,64.61
2022-07-25T06:05:18.262Z,63.78
2022-07-25T06:07:45.021Z,63.84
2022-07-25T06:10:11.844Z,64.13
2022-07-25T06:12:38.547Z,63.24
2022-07-25T06:15:07.859Z,62.96
2022-07-25T06:17:39.500Z,62.65
2022-07-25T06:20:07.017Z,61.69
2022-07-25T06:22:34.161Z,61.52
2022-07-25T06:25:03.201Z,60.78
2022-07-25T06:27:29.842Z,59.73
2022-07-25T06:29:56.723Z,59.87
2022-07-25T06:32:23.492Z,59.38
2022-07-25T06:34:50.215Z,59.00
2022-07-25T06:37:17.000Z,58.42
2022-07-25T06:39:45.884Z,57.98
2022-07-25T06:42:12.963Z,57.31
2022-07-25T06:44:39.688Z,57.57
2022-07-25T06:47:10.577Z,56.88
2022-07-25T06:49:37.403Z,57.14
2022-07-25T06:52:04.716Z,56.68
2022-07-25T06:54:31.577Z,56.75
2022-07-25T06:56:58.253Z,56.07
2022-07-25T06:59:25.525Z,55.78
2022-07-25T07:01:52.398Z,55.23
2022-07-25T07:04:19.121Z,54.53
2022-07-25T07:06:45.909Z,54.38
2022-07-25T07:09:12.665Z,54.73
2022-07-25T07:11:39.515Z,53.83
2022-07-25T07:14:06.552Z,53.54
2022-07-25T07:16:33.638Z,52.56
2022-07-25T07:19:00.370Z,51.84
2022-07-25T07:21:27.057Z,52.19
2022-07-25T07:23:53.934Z,52.56
2022-07-25T07:26:21.448Z,51.99
2022-07-25T07:28:48.166Z,51.42
2022-07-25T07:31:18.018Z,50.62
2022-07-25T07:33:45.693Z,50.06
2022-07-25T07:36:12.736Z,49.44
2022-07-25T07:38:40.106Z,49.16
2022-07-25T07:41:07.025Z,49.19
2022-07-25T07:43:33.757Z,49.81
2022-07-25T07:46:01.425Z,47.75
2022-07-25T07:48:32.935Z,47.36
2022-07-25T07:51:01.326Z,47.97
2022-07-25T07:53:47.042Z,48.14
2022-07-25T07:56:14.969Z,47.18
2022-07-25T07:58:42.033Z,46.81
2022-07-25T08:01:08.847Z,46.51
2022-07-25T08:03:36.130Z,46.33
2022-07-25T08:06:03.724Z,45.70
2022-07-25T08:08:31.532Z,45.51
2022-07-25T08:10:59.552Z,44.73
2022-07-25T08:13:31.546Z,44.63
2022-07-25T08:16:01.778Z,44.06
2022-07-25T08:18:30.082Z,44.17
2022-07-25T08:20:57.489Z,43.30
2022-07-25T08:23:25.746Z,43.14
2022-07-25T08:25:52.528Z,42.97
2022-07-25T08:28:20.348Z,43.08
2022-07-25T08:30:47.981Z,42.06
2022-07-25T08:33:16.319Z,41.77
2022-07-25T08:35:54.628Z,40.58
2022-07-25T08:38:23.886Z,40.51
2022-07-25T08:40:50.942Z,40.66
2022-07-25T08:43:18.844Z,40.15
2022-07-25T08:45:47.825Z,40.28
2022-07-25T08:48:17.930Z,39.27
2022-07-25T08:50:45.968Z,39.55
2022-07-25T08:56:11.152Z,38.69
2022-07-25T08:58:40.901Z,39.15
2022-07-25T09:01:08.190Z,38.63
2022-07-25T09:03:36.354Z,38.02
2022-07-25T09:06:14.426Z,38.64
2022-07-25T09:09:00.393Z,37.28
2022-07-25T09:11:35.635Z,36.78
2022-07-25T09:14:09.051Z,36.99
2022-07-25T09:16:43.188Z,36.67
2022-07-25T09:19:20.613Z,36.66
2022-07-25T09:22:04.599Z,35.09
2022-07-25T09:24:32.424Z,35.35
2022-07-25T09:27:01.359Z,34.92
2022-07-25T09:29:32.946Z,34.78
2022-07-25T09:32:00.671Z,34.52
2022-07-25T09:34:33.942Z,34.31
2022-07-25T09:37:04.950Z,34.39
2022-07-25T09:39:35.470Z,33.88
2022-07-25T09:42:02.594Z,33.78
2022-07-25T09:44:32.291Z,32.34
2022-07-25T09:47:09.500Z,31.11
2022-07-25T09:49:44.044Z,30.02
2022-07-25T09:52:12.207Z,27.97
2022-07-25T09:54:40.121Z,27.00
2022-07-25T09:57:07.121Z,27.18
2022-07-25T09:59:34.921Z,26.30
2022-07-25T10:02:11.217Z,25.97
2022-07-25T10:04:50.022Z,25.31
2022-07-25T10:07:20.604Z,24.29
2022-07-25T10:09:49.801Z,24.85
2022-07-25T10:12:22.158Z,24.01
2022-07-25T10:15:10.057Z,23.80
2022-07-25T10:17:38.501Z,23.69
2022-07-25T10:20:08.172Z,24.08
2022-07-25T10:22:56.434Z,23.92
2022-07-25T10:25:24.074Z,24.15
2022-07-25T10:28:00.981Z,23.87
2022-07-25T10:30:35.544Z,23.82
2022-07-25T10:33:04.829Z,23.91
2022-07-25T10:35:31.673Z,24.08
2022-07-25T10:38:02.669Z,24.02
2022-07-25T10:40:42.887Z,23.99
2022-07-25T10:43:21.302Z,24.50
2022-07-25T10:45:56.859Z,24.09
2022-07-25T10:48:27.860Z,23.98
2022-07-25T10:51:07.976Z,24.02
2022-07-25T10:53:55.119Z,23.67
2022-07-25T10:56:27.841Z,23.36
2022-07-25T10:58:58.002Z,23.10
2022-07-25T11:01:33.711Z,22.68
2022-07-25T11:04:03.170Z,22.83
2022-07-25T11:06:31.389Z,23.27
2022-07-25T11:09:00.318Z,23.68
2022-07-25T11:11:38.527Z,23.80
2022-07-25T11:14:14.151Z,23.69
2022-07-25T11:16:40.878Z,22.77
2022-07-25T11:19:27.921Z,22.89
2022-07-25T11:21:57.178Z,24.15
2022-07-25T11:24:44.896Z,24.03
2022-07-25T11:27:20.200Z,24.09
2022-07-25T11:29:46.915Z,24.07
2022-07-25T11:32:14.283Z,24.05
2022-07-25T11:34:48.426Z,23.88
2022-07-25T11:37:18.342Z,23.40
2022-07-25T11:39:46.738Z,23.74
2022-07-25T11:42:18.431Z,24.08
2022-07-25T11:44:50.910Z,24.39
2022-07-25T11:47:31.945Z,24.24
2022-07-25T11:50:01.000Z,24.21
2022-07-25T11:52:31.468Z,24.41
2022-07-25T11:55:00.946Z,24.41
2022-07-25T11:57:32.224Z,24.46
2022-07-25T12:00:00.501Z,24.32
2022-07-25T12:02:32.529Z,24.34
2022-07-25T12:05:01.622Z,24.49
2022-07-25T12:07:41.468Z,24.28
2022-07-25T12:10:11.627Z,24.10
2022-07-25T12:12:55.553Z,24.59
2022-07-25T12:15:25.249Z,23.13
2022-07-25T12:17:53.226Z,23.96
2022-07-25T12:20:23.162Z,24.16
2022-07-25T12:22:52.030Z,25.06
2022-07-25T12:25:19.252Z,24.75
2022-07-25T12:27:46.408Z,24.41
2022-07-25T12:30:13.692Z,24.37
2022-07-25T12:32:41.517Z,24.77
2022-07-25T12:35:10.555Z,25.26
2022-07-25T12:37:37.557Z,25.72
2022-07-25T12:40:06.215Z,25.99
2022-07-25T12:42:32.897Z,26.72
2022-07-25T12:44:59.676Z,27.48
2022-07-25T12:47:28.333Z,27.55
2022-07-25T12:49:55.304Z,27.65
2022-07-25T12:52:22.712Z,28.14
2022-07-25T12:54:49.384Z,27.83
2022-07-25T12:57:17.291Z,26.65
2022-07-25T12:59:44.000Z,26.52
2022-07-25T13:02:11.084Z,25.48
2022-07-25T13:04:37.880Z,25.43
2022-07-25T13:07:05.050Z,25.26
2022-07-25T13:09:32.151Z,24.77
2022-07-25T13:11:59.400Z,24.89
2022-07-25T13:14:26.421Z,24.78
2022-07-25T13:16:53.563Z,25.12
2022-07-25T13:19:20.491Z,24.52
2022-07-25T13:21:47.471Z,24.68
2022-07-25T13:24:14.124Z,24.39
2022-07-25T13:26:40.999Z,23.53
2022-07-25T13:29:08.976Z,23.57
2022-07-25T13:31:41.193Z,24.02
2022-07-25T13:34:09.092Z,23.81
2022-07-25T13:36:38.124Z,24.98
2022-07-25T13:39:05.904Z,25.48
2022-07-25T13:41:33.131Z,24.86
2022-07-25T13:44:00.442Z,24.34
2022-07-25T13:46:27.124Z,24.78
2022-07-25T13:48:55.751Z,24.55
2022-07-25T13:51:22.505Z,24.72
2022-07-25T13:53:49.874Z,24.38
2022-07-25T13:56:16.725Z,23.60
2022-07-25T13:58:43.834Z,24.15
2022-07-25T14:01:14.801Z,24.99
2022-07-25T14:03:41.523Z,24.82
2022-07-25T14:06:11.246Z,25.59
2022-07-25T14:08:40.930Z,25.60
2022-07-25T14:11:08.452Z,25.72
2022-07-25T14:13:36.526Z,25.73
2022-07-25T14:16:03.649Z,26.22
2022-07-25T14:18:31.949Z,26.50
2022-07-25T14:20:59.645Z,25.98
2022-07-25T14:23:29.943Z,25.92
2022-07-25T14:25:58.644Z,26.29
2022-07-25T14:28:25.764Z,26.29
2022-07-25T14:30:52.561Z,26.11
2022-07-25T14:33:19.230Z,25.85
2022-07-25T14:35:45.911Z,25.42
2022-07-25T14:38:12.588Z,24.77
2022-07-25T14:40:41.493Z,24.91
2022-07-25T14:43:08.553Z,25.13
2022-07-25T14:45:37.138Z,25.55
2022-07-25T14:48:07.101Z,25.91
2022-07-25T14:50:33.900Z,26.23
2022-07-25T14:53:00.564Z,27.24
2022-07-25T14:55:27.303Z,27.70
2022-07-25T14:57:54.040Z,27.96
2022-07-25T15:00:22.795Z,27.68
2022-07-25T15:02:51.563Z,27.72
2022-07-25T15:05:18.304Z,27.70
2022-07-25T15:07:44.990Z,28.27
2022-07-25T15:10:11.968Z,28.82
2022-07-25T15:12:38.845Z,28.97
2022-07-25T15:15:07.741Z,29.29
2022-07-25T15:17:34.398Z,29.22
2022-07-25T15:20:01.076Z,29.14
2022-07-25T15:22:27.818Z,29.07
2022-07-25T15:27:41.178Z,29.41
2022-07-25T15:30:08.306Z,30.02
2022-07-25T15:32:35.073Z,30.16
2022-07-25T15:35:01.820Z,30.13
2022-07-25T15:37:29.500Z,30.37
2022-07-25T15:39:56.180Z,30.28
2022-07-25T15:42:28.617Z,30.12
2022-07-25T15:45:15.047Z,30.50
2022-07-25T15:47:45.206Z,30.52
2022-07-25T15:50:15.669Z,31.06
2022-07-25T15:52:42.477Z,32.25
2022-07-25T15:55:09.578Z,32.88
2022-07-25T15:57:36.871Z,33.80
2022-07-25T16:00:08.262Z,33.86
2022-07-25T16:02:35.616Z,34.65
2022-07-25T16:05:03.553Z,34.24
2022-07-25T16:07:30.233Z,34.27
2022-07-25T16:09:57.224Z,34.01
2022-07-25T16:12:28.317Z,34.16
2022-07-25T16:14:55.576Z,34.10
2022-07-25T16:17:22.561Z,34.42
2022-07-25T16:19:49.652Z,34.36
2022-07-25T16:22:16.341Z,34.24
2022-07-25T16:24:43.083Z,34.36
2022-07-25T16:27:10.085Z,34.77
2022-07-25T16:29:37.606Z,35.20
2022-07-25T16:32:05.554Z,34.88
2022-07-25T16:34:32.640Z,35.22
2022-07-25T16:37:00.260Z,34.96
2022-07-25T16:39:27.056Z,35.54
2022-07-25T16:41:53.829Z,35.66
2022-07-25T16:44:20.839Z,35.86
2022-07-25T16:46:47.605Z,35.92
2022-07-25T16:49:15.582Z,36.11
2022-07-25T16:51:45.862Z,35.75
2022-07-25T16:54:12.558Z,36.47
2022-07-25T16:56:39.939Z,35.98
2022-07-25T16:59:08.421Z,36.08
2022-07-25T17:01:35.828Z,36.02
2022-07-25T17:04:02.721Z,36.67
2022-07-25T17:06:29.608Z,36.81
2022-07-25T17:08:56.515Z,36.79
2022-07-25T17:11:23.239Z,36.84
2022-07-25T17:13:50.055Z,36.79
2022-07-25T17:16:16.851Z,37.27
2022-07-25T17:18:43.568Z,37.27
2022-07-25T17:21:10.695Z,37.86
2022-07-25T17:23:37.477Z,38.97
2022-07-25T17:26:05.450Z,40.64
2022-07-25T17:28:32.462Z,41.23
2022-07-25T17:30:59.364Z,41.13
2022-07-25T17:33:26.418Z,41.31
2022-07-25T17:35:53.451Z,41.17
2022-07-25T17:38:25.383Z,41.14
2022-07-25T17:40:52.706Z,41.33
2022-07-25T17:43:19.749Z,41.80
2022-07-25T17:45:46.626Z,41.83
2022-07-25T17:48:13.384Z,42.17
2022-07-25T17:50:40.066Z,42.24
2022-07-25T17:53:06.744Z,42.60
2022-07-25T17:55:38.349Z,42.98
2022-07-25T17:58:05.849Z,42.76
2022-07-25T18:00:32.546Z,43.10
2022-07-25T18:02:59.644Z,42.93
2022-07-25T18:05:26.885Z,43.10
2022-07-25T18:07:54.034Z,43.52
2022-07-25T18:10:23.675Z,43.62
2022-07-25T18:12:50.597Z,43.92
2022-07-25T18:15:17.383Z,44.18
2022-07-25T18:17:45.401Z,44.65
2022-07-25T18:20:14.236Z,44.89
2022-07-25T18:22:41.580Z,45.03
2022-07-25T18:25:11.353Z,45.05
2022-07-25T18:27:40.888Z,45.54
2022-07-25T18:30:08.283Z,45.65
2022-07-25T18:32:35.536Z,46.14
2022-07-25T18:35:02.389Z,46.05
2022-07-25T18:37:29.163Z,46.45
2022-07-25T18:39:55.845Z,46.84
2022-07-25T18:42:26.332Z,47.22
2022-07-25T18:44:56.275Z,47.54
2022-07-25T18:47:34.970Z,47.43
2022-07-25T18:50:01.987Z,47.84
2022-07-25T18:52:35.090Z,48.20
2022-07-25T18:55:07.715Z,48.40
2022-07-25T18:57:35.406Z,48.98
2022-07-25T19:00:03.438Z,49.21
2022-07-25T19:02:30.670Z,49.09
2022-07-25T19:04:57.463Z,49.04
2022-07-25T19:07:24.347Z,49.38
2022-07-25T19:09:51.034Z,49.03
2022-07-25T19:12:17.750Z,49.36
2022-07-25T19:14:44.660Z,49.25
2022-07-25T19:17:11.396Z,49.52
2022-07-25T19:19:38.067Z,49.53
2022-07-25T19:22:04.734Z,49.51
2022-07-25T19:24:31.453Z,49.24
2022-07-25T19:26:58.990Z,48.74
2022-07-25T19:29:26.760Z,48.16
2022-07-25T19:31:53.685Z,47.98
2022-07-25T19:34:20.373Z,47.76
2022-07-25T19:36:47.112Z,47.19
2022-07-25T19:39:17.445Z,47.04
2022-07-25T19:41:47.006Z,47.26
2022-07-25T19:44:14.376Z,47.34
2022-07-25T19:46:41.156Z,47.00
2022-07-25T19:49:08.036Z,46.98
2022-07-25T19:51:34.819Z,47.28
2022-07-25T19:54:07.653Z,47.23
2022-07-25T19:56:35.150Z,47.54
2022-07-25T19:59:02.152Z,47.83
2022-07-25T20:01:29.707Z,48.26
2022-07-25T20:03:56.381Z,48.27
2022-07-25T20:06:24.736Z,48.55
2022-07-25T20:08:51.450Z,48.07
2022-07-25T20:11:18.124Z,48.64
2022-07-25T20:13:44.905Z,48.58
2022-07-25T20:16:12.007Z,48.14
2022-07-25T20:18:38.761Z,47.95
2022-07-25T20:21:06.026Z,47.95
2022-07-25T20:23:32.753Z,47.77
2022-07-25T20:26:00.746Z,47.84
2022-07-25T20:28:27.506Z,47.38
2022-07-25T20:30:55.995Z,47.59
2022-07-25T20:33:26.923Z,47.51
2022-07-25T20:35:54.926Z,47.46
2022-07-25T20:38:23.170Z,47.41
2022-07-25T20:40:51.313Z,47.59
2022-07-25T20:43:18.536Z,47.71
2022-07-25T20:45:45.749Z,47.68
2022-07-25T20:48:14.279Z,47.93
2022-07-25T20:50:40.994Z,48.25
2022-07-25T20:53:08.422Z,48.38
2022-07-25T20:55:35.702Z,48.46
2022-07-25T20:58:03.181Z,48.45
2022-07-25T21:00:30.765Z,48.45
2022-07-25T21:02:58.849Z,48.53
2022-07-25T21:05:26.507Z,48.81
2022-07-25T21:07:53.560Z,48.82
2022-07-25T21:10:20.575Z,49.00
2022-07-25T21:12:47.456Z,49.11
2022-07-25T21:15:15.008Z,49.03
2022-07-25T21:17:42.056Z,49.07
2022-07-25T21:20:11.332Z,49.30
2022-07-25T21:22:38.078Z,49.36
2022-07-25T21:25:05.622Z,49.29
2022-07-25T21:27:32.252Z,49.29
2022-07-25T21:29:58.985Z,49.54
2022-07-25T21:32:25.867Z,49.67
2022-07-25T21:34:52.606Z,49.99
2022-07-25T21:37:19.408Z,49.68
2022-07-25T21:39:46.124Z,50.22
2022-07-25T21:42:13.236Z,49.94
2022-07-25T21:44:41.345Z,49.94
2022-07-25T21:47:09.015Z,49.55
2022-07-25T21:49:55.389Z,49.70
2022-07-25T21:52:30.316Z,49.77
2022-07-25T21:55:03.947Z,49.91
2022-07-25T21:57:31.210Z,50.17
2022-07-25T21:59:58.192Z,50.17
2022-07-25T22:02:24.962Z,50.15
2022-07-25T22:04:51.916Z,50.04
2022-07-25T22:07:18.775Z,50.24
2022-07-25T22:09:45.494Z,50.57
2022-07-25T22:12:12.594Z,50.41
2022-07-25T22:14:39.386Z,50.40
2022-07-25T22:17:06.308Z,50.51
2022-07-25T22:19:33.624Z,50.41
2022-07-25T22:22:00.464Z,50.36
2022-07-25T22:24:27.293Z,50.48
2022-07-25T22:26:54.058Z,50.09
2022-07-25T22:31:47.710Z,50.41
2022-07-25T22:34:14.424Z,50.44
2022-07-25T22:36:41.109Z,50.13
2022-07-25T22:39:08.116Z,50.17
2022-07-25T22:41:35.150Z,49.95
2022-07-25T22:44:01.811Z,50.00
2022-07-25T22:46:30.065Z,50.52
2022-07-25T22:48:58.075Z,50.53
2022-07-25T22:51:25.668Z,50.61
2022-07-25T22:53:52.677Z,50.32
2022-07-25T22:56:19.439Z,50.19
2022-07-25T22:58:49.082Z,50.31
2022-07-25T23:01:19.666Z,50.41
2022-07-25T23:03:47.190Z,50.72
2022-07-25T23:06:13.868Z,50.65
2022-07-25T23:08:40.529Z,50.90
2022-07-25T23:11:08.294Z,50.50
2022-07-25T23:13:35.980Z,50.76
2022-07-25T23:16:03.631Z,50.82
2022-07-25T23:18:31.742Z,50.91
2022-07-25T23:20:58.832Z,51.04
2022-07-25T23:23:25.701Z,50.96
2022-07-25T23:25:52.512Z,51.26
2022-07-25T23:28:19.315Z,51.43
2022-07-25T23:30:46.078Z,51.35
2022-07-25T23:33:12.759Z,51.48
2022-07-25T23:35:39.586Z,51.63
2022-07-25T23:38:06.301Z,51.97
2022-07-25T23:40:33.200Z,51.78
2022-07-25T23:43:00.022Z,51.57
2022-07-25T23:45:28.093Z,52.10
2022-07-25T23:47:56.616Z,51.83
2022-07-25T23:50:24.512Z,52.08
2022-07-25T23:52:52.151Z,51.92
2022-07-25T23:55:19.031Z,52.06
2022-07-25T23:57:45.741Z,52.25
